Terminal Aerodrome Forecast
Issued by NWS

Home | Current Version | Previous Version | Text Only | Print | Product List | Glossary On
Versions: 1 2 3 4 5 6 7 8 9 10 11 12 13
000
FTUS46 KSEW 211500 AAA
TAFBLI
TAF AMD
KBLI 211500Z 2115/2212 13008KT P6SM SCT070 BKN250
     FM211800 18008KT P6SM SCT200
     FM212000 18010KT P6SM VCSH SCT030 OVC050
     FM220000 19012G20KT P6SM VCSH OVC030
     FM220600 16006KT P6SM OVC025=

USA.gov is the U.S. government's official web portal to all federal, state and local government web resources and services.